Quick Links (Output Below):   Max & Min Temps   /   Climate Reports   /   Zone Forecasts
River Forecasts   /   Forestry Forecasts   /   Aviation Forecasts   /   Radars   /   Features

Terminal Aerodrome Forecast (Fort Smith)

Pick a Site:
Arkadelphia | El Dorado | Fayetteville | Fort Smith | Harrison | Highfill | Hot Springs | Jonesboro
Little Rock | Monticello | Mountain Home | Pine Bluff | Texarkana
 Forecast 

KFSM 290520Z 2906/3006 01003KT P6SM FEW250
     FM291600 08006KT P6SM SCT110 SCT250
     FM300300 08004KT P6SM BKN250=


 Latest METARs (Observations) 
How to Decode METARs
11Z KFSM 291053Z 00000KT 10SM CLR 18/17 A3012 RMK AO2 SLP196
         T01830172
         
10Z KFSM 290953Z AUTO 00000KT 10SM CLR 19/17 A3012 RMK AO2 SLP194
         T01890167
         
09Z KFSM 290853Z AUTO 00000KT 10SM CLR 20/17 A3011 RMK AO2 SLP192
         T02000167 53000
         
08Z KFSM 290753Z AUTO 09003KT 10SM CLR 21/16 A3011 RMK AO2 SLP190
         T02110161
         
07Z KFSM 290653Z AUTO 00000KT 10SM CLR 22/16 A3011 RMK AO2 SLP191
         T02220156
         
06Z KFSM 290553Z AUTO 06004KT 10SM CLR 23/16 A3011 RMK AO2 SLP191
         T02280161 10300 20228 403220217 53003
         
05Z KFSM 290453Z AUTO 00000KT 10SM CLR 24/16 A3011 RMK AO2 SLP190
         T02390161
         
04Z KFSM 290353Z AUTO 34005KT 10SM CLR 25/16 A3010 RMK AO2 SLP187
         T02500161
         
03Z KFSM 290253Z 33003KT 10SM CLR 26/16 A3010 RMK AO2 SLP187 T02610161
         53013
         
02Z KFSM 290153Z 33005KT 10SM CLR 27/16 A3008 RMK AO2 SLP181
         T02720156
         
***** Today's Observations (Above) *****


Back to Main Page
http://www.srh.noaa.gov/lzk/qfcst.php

USA.gov is the U.S. government's official web portal to all federal, state and local government web resources and services.